createdAt,value
2022-08-21T00:02:36.273Z,5.00
2022-08-21T00:05:42.364Z,4.58
2022-08-21T00:08:47.629Z,5.08
2022-08-21T00:11:54.009Z,4.78
2022-08-21T00:15:04.461Z,4.72
2022-08-21T00:18:13.084Z,5.17
2022-08-21T00:21:18.009Z,4.58
2022-08-21T00:24:23.826Z,4.75
2022-08-21T00:27:29.927Z,5.17
2022-08-21T00:30:37.535Z,4.87
2022-08-21T00:33:43.893Z,4.12
2022-08-21T00:36:49.551Z,5.33
2022-08-21T00:39:57.099Z,4.80
2022-08-21T00:43:05.896Z,5.30
2022-08-21T00:46:12.344Z,4.65
2022-08-21T00:49:18.196Z,5.17
2022-08-21T00:52:29.560Z,4.65
2022-08-21T00:55:37.078Z,4.35
2022-08-21T01:03:40.505Z,4.30
2022-08-21T01:06:49.041Z,4.75
2022-08-21T01:09:55.609Z,4.87
2022-08-21T01:13:03.413Z,4.70
2022-08-21T01:16:11.929Z,4.72
2022-08-21T01:19:17.803Z,5.15
2022-08-21T01:22:23.955Z,4.45
2022-08-21T01:25:31.332Z,5.75
2022-08-21T01:28:38.221Z,4.92
2022-08-21T01:31:45.199Z,5.12
2022-08-21T01:34:52.909Z,6.12
2022-08-21T01:38:00.506Z,4.85
2022-08-21T01:41:08.301Z,4.50
2022-08-21T01:44:15.287Z,3.85
2022-08-21T01:47:41.921Z,4.92
2022-08-21T01:50:47.999Z,4.25
2022-08-21T01:53:56.311Z,4.85
2022-08-21T01:57:05.442Z,4.78
2022-08-21T02:00:12.120Z,4.53
2022-08-21T02:03:23.249Z,4.65
2022-08-21T02:06:30.995Z,3.98
2022-08-21T02:09:40.144Z,4.60
2022-08-21T02:12:46.794Z,4.67
2022-08-21T02:15:53.414Z,4.47
2022-08-21T02:18:58.933Z,5.53
2022-08-21T02:22:05.902Z,4.22
2022-08-21T02:25:12.175Z,3.90
2022-08-21T02:28:21.934Z,4.45
2022-08-21T02:31:26.963Z,4.17
2022-08-21T02:34:36.302Z,4.45
2022-08-21T02:37:41.236Z,4.40
2022-08-21T02:40:51.138Z,4.45
2022-08-21T02:43:56.236Z,5.33
2022-08-21T02:47:02.287Z,4.83
2022-08-21T02:50:09.064Z,4.80
2022-08-21T02:53:15.644Z,5.25
2022-08-21T02:56:25.187Z,4.83
2022-08-21T02:59:33.381Z,3.95
2022-08-21T03:02:39.972Z,4.50
2022-08-21T03:05:47.344Z,4.35
2022-08-21T03:08:55.057Z,4.75
2022-08-21T03:12:02.959Z,4.80
2022-08-21T03:15:10.038Z,4.35
2022-08-21T03:18:17.228Z,4.50
2022-08-21T03:21:23.810Z,5.05
2022-08-21T03:24:29.661Z,4.58
2022-08-21T03:27:35.223Z,5.00
2022-08-21T03:30:41.781Z,4.12
2022-08-21T03:33:48.969Z,4.62
2022-08-21T03:36:56.573Z,4.95
2022-08-21T03:40:03.314Z,4.55
2022-08-21T03:43:11.517Z,4.08
2022-08-21T03:46:19.775Z,4.72
2022-08-21T03:49:28.844Z,4.47
2022-08-21T03:52:34.887Z,4.67
2022-08-21T03:55:41.297Z,4.28
2022-08-21T03:58:47.914Z,4.75
2022-08-21T04:01:54.191Z,4.33
2022-08-21T04:05:00.446Z,4.17
2022-08-21T04:08:09.391Z,4.30
2022-08-21T04:11:19.321Z,3.62
2022-08-21T04:14:26.023Z,4.67
2022-08-21T04:17:29.393Z,4.55
2022-08-21T04:20:35.174Z,5.53
2022-08-21T04:23:42.373Z,3.87
2022-08-21T04:26:50.553Z,4.50
2022-08-21T04:29:56.512Z,3.98
2022-08-21T04:33:04.339Z,5.30
2022-08-21T04:36:11.496Z,4.62
2022-08-21T04:39:22.188Z,4.28
2022-08-21T04:42:29.975Z,5.30
2022-08-21T04:45:44.423Z,4.80
2022-08-21T04:48:51.230Z,4.95
2022-08-21T04:51:56.653Z,4.47
2022-08-21T04:55:02.382Z,5.08
2022-08-21T04:58:08.473Z,5.22
2022-08-21T05:01:14.341Z,4.72
2022-08-21T05:04:23.274Z,4.90
2022-08-21T05:07:42.223Z,5.22
2022-08-21T05:10:41.572Z,5.83
2022-08-21T05:13:52.307Z,5.22
2022-08-21T05:16:59.414Z,4.83
2022-08-21T05:20:05.978Z,4.85
2022-08-21T05:23:18.770Z,4.53
2022-08-21T05:26:26.050Z,5.95
2022-08-21T05:29:33.786Z,5.62
2022-08-21T05:32:41.590Z,5.10
2022-08-21T05:35:49.483Z,5.03
2022-08-21T05:38:56.218Z,5.60
2022-08-21T05:42:02.254Z,4.33
2022-08-21T05:45:09.842Z,5.30
2022-08-21T05:48:24.698Z,5.75
2022-08-21T05:51:33.663Z,4.78
2022-08-21T05:54:39.155Z,4.67
2022-08-21T05:57:49.613Z,4.65
2022-08-21T06:01:06.577Z,5.83
2022-08-21T06:04:12.644Z,4.83
2022-08-21T06:07:21.068Z,4.83
2022-08-21T06:10:27.300Z,4.75
2022-08-21T06:13:36.707Z,4.72
2022-08-21T06:16:45.326Z,4.90
2022-08-21T06:19:54.912Z,4.95
2022-08-21T06:23:01.492Z,5.12
2022-08-21T06:26:08.359Z,5.37
2022-08-21T06:29:17.493Z,5.30
2022-08-21T06:32:26.240Z,5.33
2022-08-21T06:35:33.382Z,5.37
2022-08-21T06:38:40.168Z,4.75
2022-08-21T06:41:45.615Z,5.67
2022-08-21T06:44:55.969Z,5.10
2022-08-21T06:48:02.618Z,4.55
2022-08-21T06:51:07.867Z,5.80
2022-08-21T06:54:16.742Z,5.75
2022-08-21T06:57:24.620Z,4.97
2022-08-21T07:00:32.983Z,4.92
2022-08-21T07:03:43.879Z,4.90
2022-08-21T07:06:52.082Z,4.92
2022-08-21T07:09:58.189Z,5.08
2022-08-21T07:13:08.450Z,5.42
2022-08-21T07:16:14.796Z,5.60
2022-08-21T07:19:21.884Z,5.15
2022-08-21T07:22:27.128Z,6.47
2022-08-21T07:25:34.620Z,5.58
2022-08-21T07:28:44.080Z,5.78
2022-08-21T07:31:50.159Z,5.30
2022-08-21T07:34:58.573Z,5.58
2022-08-21T07:38:06.939Z,6.00
2022-08-21T07:41:13.782Z,6.00
2022-08-21T07:44:21.378Z,5.70
2022-08-21T07:47:41.776Z,6.40
2022-08-21T07:50:36.212Z,5.65
2022-08-21T07:53:43.741Z,5.87
2022-08-21T07:56:49.900Z,6.20
2022-08-21T07:59:56.991Z,5.08
2022-08-21T08:03:06.843Z,6.25
2022-08-21T08:06:14.251Z,6.30
2022-08-21T08:09:20.773Z,6.67
2022-08-21T08:12:34.367Z,5.55
2022-08-21T08:15:45.307Z,5.28
2022-08-21T08:18:52.602Z,5.55
2022-08-21T08:21:58.671Z,5.50
2022-08-21T08:25:09.192Z,5.55
2022-08-21T08:28:16.637Z,6.90
2022-08-21T08:31:21.524Z,6.45
2022-08-21T08:34:31.081Z,6.42
2022-08-21T08:37:39.685Z,6.25
2022-08-21T08:40:56.947Z,5.92
2022-08-21T08:44:13.746Z,6.92
2022-08-21T08:47:20.991Z,5.55
2022-08-21T08:50:45.743Z,5.53
2022-08-21T08:54:05.562Z,6.03
2022-08-21T08:57:12.610Z,6.25
2022-08-21T09:00:24.732Z,6.95
2022-08-21T09:03:32.201Z,7.30
2022-08-21T09:06:45.375Z,7.10
2022-08-21T09:10:15.316Z,6.45
2022-08-21T09:13:46.920Z,6.72
2022-08-21T09:17:09.048Z,6.67
2022-08-21T09:20:43.013Z,6.62
2022-08-21T09:24:18.764Z,7.45
2022-08-21T09:27:31.138Z,7.62
2022-08-21T09:30:46.797Z,7.17
2022-08-21T09:33:54.018Z,7.50
2022-08-21T09:37:08.264Z,7.00
2022-08-21T09:40:14.562Z,7.20
2022-08-21T09:43:33.855Z,7.75
2022-08-21T09:46:42.414Z,7.53
2022-08-21T09:49:53.823Z,7.53
2022-08-21T09:53:07.154Z,7.08
2022-08-21T09:56:36.429Z,7.17
2022-08-21T09:59:49.516Z,6.72
2022-08-21T10:02:56.225Z,6.90
2022-08-21T10:06:16.340Z,8.13
2022-08-21T10:09:29.646Z,7.42
2022-08-21T10:12:40.381Z,6.33
2022-08-21T10:16:09.975Z,7.03
2022-08-21T10:19:49.628Z,7.75
2022-08-21T10:23:07.687Z,7.97
2022-08-21T10:26:40.642Z,8.95
2022-08-21T10:29:52.903Z,8.33
2022-08-21T10:33:22.085Z,7.67
2022-08-21T10:36:36.113Z,8.80
2022-08-21T10:40:01.736Z,8.38
2022-08-21T10:43:56.229Z,9.15
2022-08-21T10:47:09.504Z,8.78
2022-08-21T10:50:47.299Z,8.75
2022-08-21T10:54:22.827Z,7.95
2022-08-21T10:57:36.512Z,9.57
2022-08-21T11:00:54.858Z,9.63
2022-08-21T11:04:30.032Z,8.38
2022-08-21T11:07:53.398Z,9.00
2022-08-21T11:11:08.226Z,9.68
2022-08-21T11:14:22.432Z,8.43
2022-08-21T11:17:34.358Z,8.55
2022-08-21T11:21:15.443Z,9.28
2022-08-21T11:24:52.696Z,9.48
2022-08-21T11:28:24.729Z,8.38
2022-08-21T11:32:02.540Z,7.67
2022-08-21T11:35:36.289Z,7.90
2022-08-21T11:38:47.661Z,8.60
2022-08-21T11:41:59.484Z,7.40
2022-08-21T11:45:29.084Z,7.15
2022-08-21T11:48:59.811Z,8.68
2022-08-21T11:52:43.097Z,9.30
2022-08-21T11:56:20.641Z,9.25
2022-08-21T11:59:56.716Z,8.30
2022-08-21T12:03:09.050Z,8.83
2022-08-21T12:06:24.303Z,9.50
2022-08-21T12:09:49.738Z,9.20
2022-08-21T12:12:59.312Z,8.60
2022-08-21T12:16:07.192Z,9.03
2022-08-21T12:19:22.478Z,8.53
2022-08-21T12:22:30.479Z,8.85
2022-08-21T12:25:36.503Z,9.78
2022-08-21T12:28:45.134Z,9.23
2022-08-21T12:31:52.744Z,8.35
2022-08-21T12:35:36.996Z,7.75
2022-08-21T12:38:49.187Z,7.35
2022-08-21T12:42:06.071Z,8.03
2022-08-21T12:45:15.623Z,8.05
2022-08-21T12:48:42.878Z,8.28
2022-08-21T12:52:25.284Z,8.40
2022-08-21T12:55:33.340Z,7.03
2022-08-21T12:58:41.447Z,6.97
2022-08-21T13:02:03.151Z,7.90
2022-08-21T13:05:10.462Z,6.30
2022-08-21T13:08:23.521Z,7.92
2022-08-21T13:11:34.375Z,7.33
2022-08-21T13:14:56.091Z,7.30
2022-08-21T13:18:07.692Z,8.25
2022-08-21T13:21:29.624Z,8.08
2022-08-21T13:24:43.204Z,7.55
2022-08-21T13:27:49.279Z,8.00
2022-08-21T13:31:09.158Z,7.97
2022-08-21T13:34:19.500Z,6.55
2022-08-21T13:37:26.283Z,6.65
2022-08-21T13:40:37.824Z,6.40
2022-08-21T13:43:50.174Z,6.40
2022-08-21T13:46:58.694Z,5.05
2022-08-21T13:50:08.079Z,5.30
2022-08-21T13:53:24.034Z,4.87
2022-08-21T13:56:47.370Z,5.17
2022-08-21T13:59:55.807Z,5.53
2022-08-21T14:03:07.289Z,4.22
2022-08-21T14:06:17.585Z,4.35
2022-08-21T14:09:30.489Z,4.33
2022-08-21T14:13:07.668Z,4.00
2022-08-21T14:16:18.337Z,3.72
2022-08-21T14:19:21.996Z,4.15
2022-08-21T14:22:53.083Z,3.70
2022-08-21T14:25:53.533Z,4.53
2022-08-21T14:29:09.541Z,3.42
2022-08-21T14:32:21.617Z,3.85
2022-08-21T14:35:28.060Z,3.75
2022-08-21T14:38:36.295Z,3.95
2022-08-21T14:41:46.934Z,3.05
2022-08-21T14:44:52.813Z,4.58
2022-08-21T14:47:59.405Z,2.80
2022-08-21T14:51:09.568Z,3.72
2022-08-21T14:54:17.644Z,4.60
2022-08-21T14:57:25.776Z,3.92
2022-08-21T15:00:35.974Z,3.98
2022-08-21T15:03:45.149Z,2.90
2022-08-21T15:06:52.729Z,3.62
2022-08-21T15:10:01.065Z,3.47
2022-08-21T15:13:06.991Z,3.00
2022-08-21T15:16:13.797Z,3.90
2022-08-21T15:19:19.397Z,3.58
2022-08-21T15:22:28.834Z,3.12
2022-08-21T15:25:34.821Z,4.25
2022-08-21T15:28:44.172Z,4.72
2022-08-21T15:31:50.596Z,3.30
2022-08-21T15:34:58.466Z,3.55
2022-08-21T15:38:05.724Z,3.02
2022-08-21T15:41:13.108Z,3.20
2022-08-21T15:44:19.912Z,3.72
2022-08-21T15:47:34.085Z,3.75
2022-08-21T15:50:41.238Z,3.12
2022-08-21T15:53:47.619Z,3.65
2022-08-21T15:56:58.278Z,3.77
2022-08-21T16:03:14.800Z,3.40
2022-08-21T16:06:37.595Z,3.37
2022-08-21T16:09:32.468Z,3.67
2022-08-21T16:12:41.466Z,3.62
2022-08-21T16:15:48.028Z,4.12
2022-08-21T16:18:53.915Z,3.22
2022-08-21T16:22:03.802Z,3.98
2022-08-21T16:25:11.173Z,4.05
2022-08-21T16:28:18.626Z,3.20
2022-08-21T16:31:24.807Z,3.50
2022-08-21T16:34:36.763Z,3.15
2022-08-21T16:37:44.326Z,3.75
2022-08-21T16:40:53.085Z,3.42
2022-08-21T16:44:00.873Z,2.85
2022-08-21T16:47:06.636Z,3.45
2022-08-21T16:50:12.800Z,2.95
2022-08-21T16:53:18.544Z,2.85
2022-08-21T16:56:27.174Z,3.17
2022-08-21T16:59:32.299Z,4.12
2022-08-21T17:02:47.959Z,2.52
2022-08-21T17:05:54.247Z,2.80
2022-08-21T17:09:01.620Z,3.12
2022-08-21T17:12:09.318Z,3.65
2022-08-21T17:15:21.228Z,2.92
2022-08-21T17:18:31.752Z,2.83
2022-08-21T17:21:37.671Z,2.53
2022-08-21T17:24:44.045Z,2.67
2022-08-21T17:27:51.292Z,2.60
2022-08-21T17:30:57.786Z,2.80
2022-08-21T17:34:05.499Z,3.52
2022-08-21T17:37:10.265Z,3.70
2022-08-21T17:40:17.361Z,4.00
2022-08-21T17:43:24.931Z,7.30
2022-08-21T17:46:35.121Z,13.28
2022-08-21T17:49:41.582Z,14.45
2022-08-21T17:52:47.635Z,10.63
2022-08-21T17:55:54.051Z,9.13
2022-08-21T17:59:05.326Z,7.45
2022-08-21T18:02:19.590Z,10.48
2022-08-21T18:05:20.525Z,9.98
2022-08-21T18:08:26.214Z,8.08
2022-08-21T18:11:33.108Z,5.45
2022-08-21T18:14:46.117Z,4.85
2022-08-21T18:17:55.803Z,4.15
2022-08-21T18:21:02.519Z,3.27
2022-08-21T18:24:09.145Z,3.27
2022-08-21T18:27:14.674Z,2.98
2022-08-21T18:30:21.239Z,2.85
2022-08-21T18:33:28.961Z,2.83
2022-08-21T18:36:36.286Z,2.58
2022-08-21T18:39:44.215Z,3.42
2022-08-21T18:42:55.798Z,3.35
2022-08-21T18:46:04.358Z,4.22
2022-08-21T18:49:09.658Z,3.35
2022-08-21T18:52:20.288Z,3.30
2022-08-21T18:55:24.812Z,3.30
2022-08-21T18:58:31.212Z,3.27
2022-08-21T19:01:39.747Z,3.67
2022-08-21T19:04:48.426Z,4.20
2022-08-21T19:07:55.521Z,3.70
2022-08-21T19:11:03.154Z,3.00
2022-08-21T19:14:10.019Z,3.42
2022-08-21T19:17:17.721Z,3.45
2022-08-21T19:20:41.606Z,4.25
2022-08-21T19:23:52.598Z,3.55
2022-08-21T19:26:59.968Z,3.70
2022-08-21T19:30:05.752Z,3.70
2022-08-21T19:33:13.054Z,3.10
2022-08-21T19:36:23.480Z,4.08
2022-08-21T19:39:30.900Z,4.70
2022-08-21T19:42:37.556Z,6.60
2022-08-21T19:45:45.819Z,10.20
2022-08-21T19:48:52.224Z,11.90
2022-08-21T19:51:59.332Z,11.95
2022-08-21T19:55:09.213Z,11.57
2022-08-21T19:58:17.929Z,8.93
2022-08-21T20:01:25.799Z,6.80
2022-08-21T20:04:32.248Z,4.95
2022-08-21T20:07:39.514Z,3.50
2022-08-21T20:10:45.661Z,3.40
2022-08-21T20:13:55.990Z,3.30
2022-08-21T20:17:03.601Z,2.67
2022-08-21T20:20:10.043Z,3.35
2022-08-21T20:23:19.586Z,2.50
2022-08-21T20:26:27.492Z,2.90
2022-08-21T20:29:38.964Z,2.98
2022-08-21T20:32:43.498Z,2.87
2022-08-21T20:35:53.765Z,2.75
2022-08-21T20:38:59.714Z,3.90
2022-08-21T20:42:06.970Z,3.30
2022-08-21T20:45:15.038Z,3.52
2022-08-21T20:48:49.513Z,3.27
2022-08-21T20:51:59.837Z,2.80
2022-08-21T20:55:13.245Z,3.20
2022-08-21T20:58:32.101Z,3.17
2022-08-21T21:01:40.731Z,3.45
2022-08-21T21:05:05.305Z,2.67
2022-08-21T21:08:39.535Z,2.90
2022-08-21T21:11:52.978Z,3.12
2022-08-21T21:15:05.304Z,2.90
2022-08-21T21:18:24.650Z,3.42
2022-08-21T21:21:55.012Z,3.15
2022-08-21T21:25:20.771Z,2.65
2022-08-21T21:28:48.552Z,2.70
2022-08-21T21:31:55.249Z,2.95
2022-08-21T21:35:01.328Z,3.00
2022-08-21T21:38:51.925Z,2.92
2022-08-21T21:42:10.077Z,3.60
2022-08-21T21:45:29.045Z,2.87
2022-08-21T21:48:59.168Z,2.85
2022-08-21T21:52:20.164Z,2.98
2022-08-21T21:55:49.888Z,2.50
2022-08-21T21:59:12.321Z,3.27
2022-08-21T22:02:32.629Z,3.30
2022-08-21T22:06:11.864Z,2.85
2022-08-21T22:09:36.359Z,3.12
2022-08-21T22:12:57.879Z,3.60
2022-08-21T22:16:05.904Z,3.00
2022-08-21T22:19:18.605Z,3.87
2022-08-21T22:22:31.442Z,3.12
2022-08-21T22:25:43.492Z,3.17
2022-08-21T22:28:54.717Z,3.27
2022-08-21T22:35:24.589Z,3.52
2022-08-21T22:38:48.025Z,3.40
2022-08-21T22:41:57.768Z,3.25
2022-08-21T22:45:12.383Z,4.37
2022-08-21T22:48:22.630Z,3.67
2022-08-21T22:51:47.945Z,3.45
2022-08-21T22:54:56.897Z,3.42
2022-08-21T22:58:25.476Z,3.40
2022-08-21T23:01:42.025Z,2.92
2022-08-21T23:04:48.322Z,3.40
2022-08-21T23:07:58.445Z,3.22
2022-08-21T23:11:05.136Z,3.77
2022-08-21T23:14:14.438Z,3.30
2022-08-21T23:17:27.207Z,3.25
2022-08-21T23:20:46.968Z,3.60
2022-08-21T23:23:59.227Z,2.40
2022-08-21T23:27:34.157Z,3.08
2022-08-21T23:31:07.020Z,3.90
2022-08-21T23:34:31.388Z,2.80
2022-08-21T23:37:59.246Z,3.47
2022-08-21T23:41:20.579Z,2.90
2022-08-21T23:48:31.059Z,3.72
2022-08-21T23:52:18.607Z,2.90
2022-08-21T23:55:38.524Z,3.37
2022-08-21T23:59:04.942Z,3.37
